createdAt,value
2019-04-23T00:01:07.804Z,6.17
2019-04-23T00:03:23.875Z,6.08
2019-04-23T00:05:59.365Z,5.97
2019-04-23T00:08:23.352Z,5.93
2019-04-23T00:13:05.700Z,5.80
2019-04-23T00:15:10.494Z,5.90
2019-04-23T00:17:43.307Z,6.35
2019-04-23T00:20:04.466Z,6.00
2019-04-23T00:22:37.020Z,5.58
2019-04-23T00:27:47.790Z,5.47
2019-04-23T00:29:53.519Z,6.05
2019-04-23T00:32:18.327Z,6.12
2019-04-23T00:34:33.334Z,5.85
2019-04-23T00:36:55.317Z,6.15
2019-04-23T00:39:17.344Z,5.53
2019-04-23T00:41:44.297Z,5.90
2019-04-23T00:44:01.850Z,5.65
2019-04-23T00:46:24.175Z,5.80
2019-04-23T00:53:41.702Z,6.03
2019-04-23T00:55:47.632Z,6.03
2019-04-23T00:58:22.374Z,6.05
2019-04-23T01:02:58.970Z,6.50
2019-04-23T01:07:38.541Z,6.15
2019-04-23T01:10:10.575Z,6.10
2019-04-23T01:12:31.238Z,6.25
2019-04-23T01:14:48.221Z,5.87
2019-04-23T01:17:17.313Z,5.53
2019-04-23T01:21:39.127Z,6.20
2019-04-23T01:24:19.275Z,5.83
2019-04-23T01:27:33.932Z,6.47
2019-04-23T01:29:48.702Z,5.83
2019-04-23T01:32:05.315Z,6.10
2019-04-23T01:34:31.420Z,5.80
2019-04-23T01:36:52.172Z,6.12
2019-04-23T01:39:14.545Z,4.80
2019-04-23T01:41:33.661Z,6.40
2019-04-23T01:43:51.711Z,6.20
2019-04-23T01:46:21.744Z,5.75
2019-04-23T01:48:40.438Z,6.17
2019-04-23T01:50:56.054Z,6.12
2019-04-23T01:55:47.360Z,6.22
2019-04-23T02:00:34.169Z,6.20
2019-04-23T02:03:06.066Z,6.00
2019-04-23T02:05:23.238Z,6.55
2019-04-23T02:07:47.215Z,6.25
2019-04-23T02:10:07.152Z,6.83
2019-04-23T02:12:30.546Z,6.92
2019-04-23T02:14:51.753Z,6.40
2019-04-23T02:17:11.777Z,7.20
2019-04-23T02:19:29.348Z,6.50
2019-04-23T02:24:21.092Z,6.65
2019-04-23T02:29:13.316Z,6.87
2019-04-23T02:39:45.959Z,6.40
2019-04-23T02:41:12.544Z,6.65
2019-04-23T02:52:56.180Z,6.53
2019-04-23T02:55:17.874Z,7.03
2019-04-23T02:57:39.673Z,6.85
2019-04-23T03:00:14.164Z,7.22
2019-04-23T03:02:40.797Z,7.58
2019-04-23T03:07:16.168Z,7.62
2019-04-23T03:09:37.033Z,8.10
2019-04-23T03:16:45.894Z,7.78
2019-04-23T03:19:00.648Z,7.80
2019-04-23T03:21:46.378Z,7.17
2019-04-23T03:28:56.884Z,7.55
2019-04-23T03:38:30.113Z,8.23
2019-04-23T03:43:25.462Z,8.45
2019-04-23T03:45:38.734Z,8.55
2019-04-23T03:57:21.961Z,6.28
2019-04-23T04:02:10.561Z,9.28
2019-04-23T04:04:25.231Z,8.45
2019-04-23T04:06:52.554Z,8.85
2019-04-23T04:09:17.439Z,8.83
2019-04-23T04:14:01.497Z,8.73
2019-04-23T04:16:07.494Z,9.08
2019-04-23T04:21:09.606Z,8.98
2019-04-23T04:25:48.615Z,8.95
2019-04-23T04:35:25.034Z,9.15
2019-04-23T04:47:04.563Z,8.95
2019-04-23T04:56:42.720Z,10.60
2019-04-23T04:58:52.850Z,10.35
2019-04-23T05:08:28.937Z,11.33
2019-04-23T05:15:25.746Z,10.50
2019-04-23T05:20:14.631Z,10.60
2019-04-23T05:24:55.484Z,10.03
2019-04-23T05:27:16.136Z,9.85
2019-04-23T05:29:36.632Z,11.25
2019-04-23T05:31:58.234Z,10.48
2019-04-23T05:34:14.571Z,10.35
2019-04-23T05:41:30.397Z,10.40
2019-04-23T05:46:16.117Z,10.60
2019-04-23T05:48:32.211Z,8.28
2019-04-23T05:53:18.627Z,11.38
2019-04-23T05:55:45.939Z,10.85
2019-04-23T05:58:06.411Z,11.03
2019-04-23T06:00:28.868Z,12.05
2019-04-23T06:02:48.161Z,11.57
2019-04-23T06:05:08.795Z,8.77
2019-04-23T06:09:54.975Z,10.63
2019-04-23T06:12:15.536Z,11.47
2019-04-23T06:14:39.044Z,8.33
2019-04-23T06:17:06.271Z,11.05
2019-04-23T06:22:07.424Z,12.47
2019-04-23T06:24:16.807Z,11.63
2019-04-23T06:28:57.432Z,9.90
2019-04-23T06:31:18.210Z,12.63
2019-04-23T06:35:58.582Z,13.00
2019-04-23T06:40:44.447Z,13.20
2019-04-23T06:43:11.585Z,10.32
2019-04-23T06:45:33.929Z,14.30
2019-04-23T06:48:03.610Z,14.68
2019-04-23T06:50:11.850Z,14.68
2019-04-23T06:52:31.917Z,13.50
2019-04-23T06:55:06.404Z,14.35
2019-04-23T06:57:22.656Z,14.47
2019-04-23T07:00:02.417Z,14.55
2019-04-23T07:04:36.293Z,16.03
2019-04-23T07:07:13.683Z,11.73
2019-04-23T07:09:13.707Z,14.98
2019-04-23T07:13:58.391Z,16.15
2019-04-23T07:16:22.923Z,12.53
2019-04-23T07:21:13.260Z,15.88
2019-04-23T07:23:37.618Z,16.62
2019-04-23T07:25:56.778Z,17.27
2019-04-23T07:28:18.115Z,16.55
2019-04-23T07:30:38.395Z,16.23
2019-04-23T07:33:04.162Z,12.20
2019-04-23T07:35:21.233Z,17.37
2019-04-23T07:37:56.583Z,17.30
2019-04-23T07:40:25.593Z,13.05
2019-04-23T07:42:41.986Z,15.70
2019-04-23T07:45:26.177Z,16.67
2019-04-23T07:48:06.815Z,12.58
2019-04-23T07:59:50.108Z,13.15
2019-04-23T08:02:15.433Z,18.50
2019-04-23T08:04:35.496Z,19.50
2019-04-23T08:06:53.053Z,14.00
2019-04-23T08:09:22.448Z,18.05
2019-04-23T08:11:39.806Z,17.90
2019-04-23T08:18:49.768Z,19.12
2019-04-23T08:21:00.879Z,19.55
2019-04-23T08:23:34.564Z,14.00
2019-04-23T08:26:22.215Z,19.48
2019-04-23T08:28:43.399Z,21.00
2019-04-23T08:30:57.229Z,20.43
2019-04-23T08:33:17.657Z,15.40
2019-04-23T08:35:43.641Z,21.40
2019-04-23T08:38:12.313Z,16.47
2019-04-23T08:43:05.600Z,23.47
2019-04-23T08:47:44.654Z,25.70
2019-04-23T08:50:04.838Z,25.32
2019-04-23T08:52:33.511Z,26.85
2019-04-23T08:55:13.754Z,25.72
2019-04-23T08:57:21.176Z,24.90
2019-04-23T08:59:56.059Z,24.73
2019-04-23T09:02:24.241Z,24.25
2019-04-23T09:04:31.244Z,25.82
2019-04-23T09:06:56.026Z,25.27
2019-04-23T09:09:20.001Z,27.22
2019-04-23T09:11:45.913Z,26.82
2019-04-23T09:13:57.579Z,24.98
2019-04-23T09:16:22.423Z,25.65
2019-04-23T09:18:37.181Z,26.05
2019-04-23T09:21:03.578Z,25.72
2019-04-23T09:23:35.845Z,24.95
2019-04-23T09:25:54.356Z,24.82
2019-04-23T09:28:16.101Z,24.77
2019-04-23T09:30:42.392Z,18.73
2019-04-23T09:33:06.151Z,26.00
2019-04-23T09:35:27.834Z,26.75
2019-04-23T09:38:09.051Z,26.05
2019-04-23T09:43:13.816Z,25.30
2019-04-23T09:45:46.730Z,26.42
2019-04-23T09:50:32.989Z,25.62
2019-04-23T09:53:08.471Z,20.00
2019-04-23T09:55:24.603Z,25.00
2019-04-23T09:57:34.381Z,26.23
2019-04-23T10:00:03.253Z,28.55
2019-04-23T10:02:10.512Z,27.40
2019-04-23T10:04:27.916Z,26.53
2019-04-23T10:06:45.178Z,26.93
2019-04-23T10:09:02.646Z,28.57
2019-04-23T10:11:24.373Z,26.95
2019-04-23T10:13:45.167Z,27.65
2019-04-23T10:16:06.936Z,29.42
2019-04-23T10:18:29.119Z,28.57
2019-04-23T10:20:49.976Z,29.20
2019-04-23T10:23:10.385Z,29.10
2019-04-23T10:25:31.969Z,27.77
2019-04-23T10:27:58.503Z,28.23
2019-04-23T10:30:15.243Z,28.73
2019-04-23T10:32:36.030Z,27.05
2019-04-23T10:35:13.532Z,26.77
2019-04-23T10:37:32.046Z,27.67
2019-04-23T10:39:46.874Z,27.73
2019-04-23T10:42:03.564Z,20.35
2019-04-23T10:44:26.695Z,27.27
2019-04-23T10:47:23.778Z,27.77
2019-04-23T10:49:53.251Z,27.73
2019-04-23T10:52:24.886Z,28.07
2019-04-23T10:54:48.532Z,28.85
2019-04-23T10:57:15.903Z,28.45
2019-04-23T11:02:15.371Z,29.92
2019-04-23T11:04:52.392Z,28.92
2019-04-23T11:06:45.397Z,28.77
2019-04-23T11:09:20.182Z,28.05
2019-04-23T11:11:50.676Z,27.90
2019-04-23T11:18:55.390Z,30.17
2019-04-23T11:21:07.479Z,31.20
2019-04-23T11:23:22.441Z,29.02
2019-04-23T11:25:44.853Z,31.35
2019-04-23T11:28:16.209Z,32.53
2019-04-23T11:30:36.598Z,30.45
2019-04-23T11:33:10.137Z,31.07
2019-04-23T11:40:08.988Z,29.70
2019-04-23T11:42:29.703Z,30.23
2019-04-23T11:44:57.728Z,30.70
2019-04-23T11:47:42.244Z,27.67
2019-04-23T11:54:17.510Z,33.95
2019-04-23T11:57:07.891Z,35.45
2019-04-23T11:59:10.223Z,34.78
2019-04-23T12:01:49.249Z,36.10
2019-04-23T12:04:14.961Z,36.45
2019-04-23T12:06:47.817Z,37.15
2019-04-23T12:09:26.320Z,37.05
2019-04-23T12:14:24.884Z,37.33
2019-04-23T12:16:38.123Z,38.43
2019-04-23T12:19:17.209Z,34.67
2019-04-23T12:21:20.629Z,37.55
2019-04-23T12:23:48.381Z,36.85
2019-04-23T12:26:15.464Z,38.65
2019-04-23T12:28:31.848Z,39.53
2019-04-23T12:33:10.587Z,28.73
2019-04-23T12:35:32.541Z,36.42
2019-04-23T12:38:06.972Z,39.90
2019-04-23T12:45:25.076Z,38.35
2019-04-23T12:52:28.379Z,39.80
2019-04-23T12:59:28.671Z,40.95
2019-04-23T13:01:55.849Z,43.78
2019-04-23T13:04:16.403Z,43.00
2019-04-23T13:06:41.075Z,45.30
2019-04-23T13:09:24.669Z,44.10
2019-04-23T13:11:23.730Z,47.57
2019-04-23T13:13:48.405Z,45.47
2019-04-23T13:16:06.280Z,43.05
2019-04-23T13:20:41.827Z,48.20
2019-04-23T13:25:45.626Z,47.35
2019-04-23T13:30:31.498Z,45.15
2019-04-23T13:35:25.555Z,44.53
2019-04-23T13:37:35.462Z,47.10
2019-04-23T13:39:51.561Z,48.48
2019-04-23T13:42:23.165Z,48.68
2019-04-23T13:44:42.389Z,44.10
2019-04-23T13:47:00.509Z,46.33
2019-04-23T13:49:31.670Z,51.30
2019-04-23T13:52:05.634Z,49.65
2019-04-23T13:54:07.517Z,48.50
2019-04-23T13:57:13.161Z,33.83
2019-04-23T13:58:59.677Z,45.05
2019-04-23T14:01:35.341Z,43.40
2019-04-23T14:03:41.256Z,42.10
2019-04-23T14:06:18.380Z,45.03
2019-04-23T14:11:11.058Z,47.05
2019-04-23T14:13:40.069Z,46.88
2019-04-23T14:15:46.176Z,46.80
2019-04-23T14:18:20.936Z,44.58
2019-04-23T14:23:00.100Z,46.90
2019-04-23T14:25:19.119Z,47.95
2019-04-23T14:30:12.786Z,35.33
2019-04-23T14:32:29.180Z,47.67
2019-04-23T14:34:48.417Z,46.88
2019-04-23T14:37:07.475Z,44.18
2019-04-23T14:39:43.704Z,45.03
2019-04-23T14:41:46.081Z,43.23
2019-04-23T14:48:57.654Z,32.33
2019-04-23T14:53:40.647Z,41.27
2019-04-23T14:58:31.297Z,41.77
2019-04-23T15:01:06.647Z,31.62
2019-04-23T15:03:20.333Z,42.58
2019-04-23T15:07:58.426Z,31.00
2019-04-23T15:12:45.591Z,30.10
2019-04-23T15:17:28.816Z,44.88
2019-04-23T15:22:15.247Z,45.12
2019-04-23T15:24:41.309Z,45.28
2019-04-23T15:29:04.595Z,43.28
2019-04-23T15:41:13.877Z,43.35
2019-04-23T15:46:02.625Z,45.70
2019-04-23T15:48:15.661Z,42.95
2019-04-23T15:50:43.959Z,44.98
2019-04-23T15:55:22.149Z,40.65
2019-04-23T15:58:02.886Z,44.77
2019-04-23T16:00:06.485Z,43.78
2019-04-23T16:02:03.406Z,42.60
2019-04-23T16:04:24.232Z,42.55
2019-04-23T16:06:45.711Z,41.40
2019-04-23T16:09:36.013Z,40.05
2019-04-23T16:11:56.891Z,39.08
2019-04-23T16:14:40.652Z,29.25
2019-04-23T16:19:25.624Z,28.25
2019-04-23T16:22:01.881Z,38.08
2019-04-23T16:24:20.479Z,38.90
2019-04-23T16:26:40.634Z,39.40
2019-04-23T16:31:33.505Z,39.30
2019-04-23T16:34:00.060Z,45.33
2019-04-23T16:36:11.188Z,48.17
2019-04-23T16:38:40.780Z,44.60
2019-04-23T16:40:47.713Z,44.20
2019-04-23T16:43:19.825Z,44.50
2019-04-23T16:45:45.959Z,46.92
2019-04-23T16:48:14.122Z,47.70
2019-04-23T16:50:31.019Z,45.60
2019-04-23T16:52:52.255Z,48.15
2019-04-23T16:55:18.129Z,49.55
2019-04-23T17:02:19.620Z,42.13
2019-04-23T17:04:39.351Z,35.00
2019-04-23T17:07:02.375Z,51.55
2019-04-23T17:09:24.183Z,53.08
2019-04-23T17:11:55.612Z,52.67
2019-04-23T17:18:53.838Z,34.60
2019-04-23T17:21:11.799Z,40.73
2019-04-23T17:26:04.083Z,46.50
2019-04-23T17:28:21.815Z,46.90
2019-04-23T17:30:51.739Z,50.73
2019-04-23T17:33:33.282Z,51.10
2019-04-23T17:36:05.429Z,50.28
2019-04-23T17:38:24.851Z,50.60
2019-04-23T17:40:47.545Z,35.80
2019-04-23T17:43:04.932Z,50.55
2019-04-23T17:47:54.194Z,51.63
2019-04-23T17:50:28.128Z,52.90
2019-04-23T17:55:06.467Z,51.10
2019-04-23T18:00:08.336Z,52.60
2019-04-23T18:07:30.517Z,54.95
2019-04-23T18:09:28.893Z,57.15
2019-04-23T18:12:02.405Z,58.10
2019-04-23T18:14:11.474Z,58.55
2019-04-23T18:16:41.202Z,41.48
2019-04-23T18:19:00.697Z,42.93
2019-04-23T18:21:29.156Z,58.70
2019-04-23T18:26:29.053Z,57.67
2019-04-23T18:29:04.551Z,60.80
2019-04-23T18:31:12.915Z,57.90
2019-04-23T18:36:06.645Z,42.90
2019-04-23T18:38:31.962Z,62.95
2019-04-23T18:50:46.757Z,57.75
2019-04-23T18:53:02.695Z,56.35
2019-04-23T18:55:37.126Z,56.95
2019-04-23T18:57:45.823Z,60.15
2019-04-23T19:00:37.043Z,59.13
2019-04-23T19:02:55.151Z,59.25
2019-04-23T19:05:24.711Z,58.08
2019-04-23T19:12:45.013Z,55.48
2019-04-23T19:15:04.147Z,55.43
2019-04-23T19:17:44.068Z,52.73
2019-04-23T19:24:31.533Z,58.90
2019-04-23T19:29:21.377Z,57.58
2019-04-23T19:34:14.183Z,60.92
2019-04-23T19:36:26.036Z,59.77
2019-04-23T19:39:00.193Z,64.03
2019-04-23T19:41:10.746Z,66.72
2019-04-23T19:46:03.846Z,62.87
2019-04-23T19:50:51.988Z,66.87
2019-04-23T19:53:14.019Z,70.72
2019-04-23T19:55:24.431Z,53.38
2019-04-23T19:57:50.787Z,75.08
2019-04-23T20:00:10.023Z,76.42
2019-04-23T20:02:55.278Z,78.90
2019-04-23T20:04:56.076Z,81.70
2019-04-23T20:07:22.742Z,77.75
2019-04-23T20:09:50.790Z,84.80
2019-04-23T20:12:00.729Z,85.28
2019-04-23T20:17:04.406Z,87.63
2019-04-23T20:19:18.795Z,84.90
2019-04-23T20:24:08.445Z,84.93
2019-04-23T20:26:23.527Z,86.57
2019-04-23T20:32:06.026Z,85.20
2019-04-23T20:32:26.637Z,85.30
2019-04-23T20:36:36.817Z,78.28
2019-04-23T20:38:53.216Z,81.50
2019-04-23T20:41:15.267Z,83.37
2019-04-23T20:43:42.584Z,84.17
2019-04-23T20:45:58.928Z,74.82
2019-04-23T20:48:25.900Z,83.55
2019-04-23T20:50:39.608Z,81.30
2019-04-23T20:52:57.479Z,78.62
2019-04-23T20:55:44.259Z,58.35
2019-04-23T20:57:55.583Z,78.15
2019-04-23T21:00:36.694Z,74.53
2019-04-23T21:07:54.085Z,80.45
2019-04-23T21:10:22.027Z,53.87
2019-04-23T21:12:44.813Z,77.75
2019-04-23T21:15:05.383Z,76.47
2019-04-23T21:17:14.706Z,74.75
2019-04-23T21:19:43.085Z,75.83
2019-04-23T21:22:09.865Z,74.32
2019-04-23T21:24:27.103Z,75.52
2019-04-23T21:26:50.595Z,71.77
2019-04-23T21:29:09.603Z,66.30
2019-04-23T21:41:43.006Z,74.25
2019-04-23T21:43:59.238Z,72.70
2019-04-23T21:46:08.061Z,70.83
2019-04-23T21:48:42.993Z,66.15
2019-04-23T21:50:49.381Z,65.80
2019-04-23T21:53:11.747Z,65.97
2019-04-23T21:55:39.073Z,67.58
2019-04-23T21:58:04.570Z,50.52
2019-04-23T22:00:19.118Z,66.35
2019-04-23T22:02:49.398Z,63.17
2019-04-23T22:05:04.766Z,47.98
2019-04-23T22:07:25.534Z,67.92
2019-04-23T22:14:33.317Z,68.47
2019-04-23T22:17:01.573Z,68.07
2019-04-23T22:19:17.030Z,69.42
2019-04-23T22:21:45.306Z,73.72
2019-04-23T22:24:02.461Z,71.02
2019-04-23T22:26:34.841Z,51.23
2019-04-23T22:28:57.807Z,70.52
2019-04-23T22:31:12.753Z,74.40
2019-04-23T22:33:44.515Z,71.20
2019-04-23T22:35:56.699Z,70.30
2019-04-23T22:38:18.841Z,73.33
2019-04-23T22:40:46.653Z,70.25
2019-04-23T22:45:17.333Z,71.42
2019-04-23T22:47:50.935Z,76.28
2019-04-23T22:50:07.479Z,77.80
2019-04-23T22:54:57.346Z,76.25
2019-04-23T22:57:04.732Z,74.58
2019-04-23T22:59:50.902Z,74.80
2019-04-23T23:02:21.030Z,75.10
2019-04-23T23:04:24.745Z,77.50
2019-04-23T23:11:35.236Z,79.20
2019-04-23T23:14:09.143Z,76.53
2019-04-23T23:16:14.813Z,73.40
2019-04-23T23:18:52.424Z,73.95
2019-04-23T23:25:52.048Z,54.90
2019-04-23T23:28:13.477Z,73.70
2019-04-23T23:30:37.710Z,75.42
2019-04-23T23:32:57.094Z,78.42
2019-04-23T23:35:24.376Z,75.85
2019-04-23T23:37:36.866Z,75.62
2019-04-23T23:40:15.343Z,75.97
2019-04-23T23:47:10.876Z,78.75
2019-04-23T23:51:49.602Z,75.70
2019-04-23T23:54:20.013Z,77.80
2019-04-23T23:56:39.153Z,76.60
2019-04-23T23:59:07.150Z,76.70
